createdAt,value
2017-07-04T00:01:12.677Z,19.25
2017-07-04T00:03:53.188Z,19.31
2017-07-04T00:06:36.507Z,19.38
2017-07-04T00:09:17.850Z,19.29
2017-07-04T00:11:59.735Z,19.32
2017-07-04T00:14:41.210Z,19.31
2017-07-04T00:17:27.385Z,19.34
2017-07-04T00:20:08.944Z,19.46
2017-07-04T00:22:52.471Z,19.50
2017-07-04T00:25:34.710Z,19.37
2017-07-04T00:28:16.534Z,19.30
2017-07-04T00:30:58.959Z,19.31
2017-07-04T00:33:40.517Z,19.28
2017-07-04T00:36:21.492Z,19.16
2017-07-04T00:39:02.831Z,19.04
2017-07-04T00:41:44.050Z,19.09
2017-07-04T00:44:26.676Z,18.99
2017-07-04T00:47:07.407Z,19.01
2017-07-04T00:49:50.036Z,18.91
2017-07-04T00:52:35.008Z,18.84
2017-07-04T00:55:16.600Z,18.80
2017-07-04T00:57:56.341Z,18.86
2017-07-04T01:00:37.010Z,18.87
2017-07-04T01:03:18.088Z,18.85
2017-07-04T01:05:58.269Z,18.69
2017-07-04T01:08:39.209Z,18.67
2017-07-04T01:11:20.188Z,18.54
2017-07-04T01:14:01.257Z,18.61
2017-07-04T01:16:46.008Z,18.50
2017-07-04T01:19:25.585Z,18.63
2017-07-04T01:22:04.879Z,18.67
2017-07-04T01:24:37.359Z,18.59
2017-07-04T01:27:07.086Z,18.51
2017-07-04T01:29:36.768Z,18.65
2017-07-04T01:32:10.050Z,18.68
2017-07-04T01:34:52.047Z,18.52
2017-07-04T01:37:31.193Z,18.53
2017-07-04T01:40:06.745Z,18.52
2017-07-04T01:42:44.589Z,18.51
2017-07-04T01:45:23.955Z,18.61
2017-07-04T01:48:02.767Z,18.57
2017-07-04T01:50:42.945Z,18.48
2017-07-04T01:53:23.512Z,18.49
2017-07-04T01:56:03.913Z,18.48
2017-07-04T01:58:40.086Z,18.36
2017-07-04T02:01:19.304Z,18.42
2017-07-04T02:04:00.497Z,18.43
2017-07-04T02:06:40.130Z,18.33
2017-07-04T02:09:14.451Z,18.34
2017-07-04T02:11:51.022Z,18.37
2017-07-04T02:14:29.014Z,18.26
2017-07-04T02:17:10.207Z,18.28
2017-07-04T02:19:52.218Z,18.30
2017-07-04T02:22:31.729Z,18.29
2017-07-04T02:25:12.821Z,18.32
2017-07-04T02:27:53.955Z,18.12
2017-07-04T02:30:35.131Z,18.23
2017-07-04T02:33:14.819Z,18.36
2017-07-04T02:35:56.754Z,18.15
2017-07-04T02:38:35.321Z,18.21
2017-07-04T02:41:16.103Z,18.09
2017-07-04T02:43:56.468Z,18.03
2017-07-04T02:46:37.559Z,18.03
2017-07-04T02:49:18.804Z,18.03
2017-07-04T02:51:59.613Z,18.14
2017-07-04T02:54:39.473Z,18.13
2017-07-04T02:57:19.471Z,18.16
2017-07-04T02:59:59.821Z,18.10
2017-07-04T03:02:40.977Z,18.03
2017-07-04T03:05:23.087Z,18.07
2017-07-04T03:08:05.391Z,18.01
2017-07-04T03:10:45.084Z,18.00
2017-07-04T03:13:25.948Z,17.98
2017-07-04T03:16:07.290Z,18.08
2017-07-04T03:18:46.582Z,17.98
2017-07-04T03:21:24.665Z,18.08
2017-07-04T03:24:06.677Z,18.04
2017-07-04T03:26:47.059Z,18.02
2017-07-04T03:29:28.267Z,18.02
2017-07-04T03:32:09.459Z,18.09
2017-07-04T03:34:48.733Z,18.11
2017-07-04T03:37:26.747Z,18.19
2017-07-04T03:40:08.115Z,18.16
2017-07-04T03:42:49.667Z,18.11
2017-07-04T03:45:30.443Z,18.07
2017-07-04T03:48:11.378Z,17.98
2017-07-04T03:50:52.568Z,17.98
2017-07-04T03:53:33.435Z,17.84
2017-07-04T03:56:14.057Z,17.74
2017-07-04T03:58:54.135Z,17.80
2017-07-04T04:01:34.537Z,17.91
2017-07-04T04:04:15.236Z,17.99
2017-07-04T04:06:55.992Z,18.10
2017-07-04T04:09:35.733Z,18.09
2017-07-04T04:12:16.038Z,18.18
2017-07-04T04:14:57.663Z,18.16
2017-07-04T04:17:39.220Z,18.20
2017-07-04T04:20:19.842Z,18.28
2017-07-04T04:23:00.083Z,18.24
2017-07-04T04:25:39.243Z,18.31
2017-07-04T04:28:17.230Z,18.47
2017-07-04T04:30:54.406Z,18.60
2017-07-04T04:33:33.818Z,18.58
2017-07-04T04:36:13.783Z,18.60
2017-07-04T04:38:53.008Z,18.65
2017-07-04T04:41:31.030Z,18.72
2017-07-04T04:44:12.478Z,18.70
2017-07-04T04:46:51.917Z,18.71
2017-07-04T04:49:31.332Z,18.86
2017-07-04T04:52:12.277Z,18.97
2017-07-04T04:54:53.321Z,19.20
2017-07-04T04:57:33.702Z,19.10
2017-07-04T05:00:13.576Z,19.03
2017-07-04T05:02:54.731Z,19.20
2017-07-04T05:05:36.314Z,19.35
2017-07-04T05:08:16.245Z,19.57
2017-07-04T05:10:52.260Z,19.50
2017-07-04T05:13:30.365Z,19.50
2017-07-04T05:16:10.709Z,19.34
2017-07-04T05:18:50.930Z,19.31
2017-07-04T05:21:32.011Z,19.35
2017-07-04T05:24:12.607Z,19.36
2017-07-04T05:26:53.151Z,19.35
2017-07-04T05:29:33.422Z,19.49
2017-07-04T05:32:15.101Z,19.53
2017-07-04T05:34:56.341Z,19.36
2017-07-04T05:37:37.764Z,19.44
2017-07-04T05:40:18.210Z,19.45
2017-07-04T05:42:59.491Z,19.50
2017-07-04T05:45:41.146Z,19.64
2017-07-04T05:48:22.068Z,19.57
2017-07-04T05:51:00.492Z,19.59
2017-07-04T05:53:41.890Z,19.67
2017-07-04T05:56:22.657Z,19.63
2017-07-04T05:59:04.970Z,19.75
2017-07-04T06:01:43.836Z,19.80
2017-07-04T06:04:25.289Z,19.68
2017-07-04T06:07:06.307Z,19.75
2017-07-04T06:09:47.327Z,19.84
2017-07-04T06:12:27.054Z,19.87
2017-07-04T06:14:59.482Z,19.96
2017-07-04T06:17:29.895Z,20.07
2017-07-04T06:19:59.619Z,20.05
2017-07-04T06:22:29.921Z,20.14
2017-07-04T06:24:59.734Z,20.26
2017-07-04T06:27:29.391Z,20.24
2017-07-04T06:29:59.058Z,20.23
2017-07-04T06:32:28.818Z,20.26
2017-07-04T06:35:06.811Z,20.39
2017-07-04T06:37:38.143Z,20.46
2017-07-04T06:40:08.594Z,20.37
2017-07-04T06:42:38.331Z,20.58
2017-07-04T06:45:08.810Z,20.62
2017-07-04T06:47:38.736Z,20.45
2017-07-04T06:50:08.506Z,20.39
2017-07-04T06:52:38.272Z,20.54
2017-07-04T06:55:08.018Z,20.46
2017-07-04T06:57:37.707Z,20.57
2017-07-04T07:00:07.372Z,20.51
2017-07-04T07:02:37.228Z,20.62
2017-07-04T07:05:07.254Z,20.66
2017-07-04T07:07:36.982Z,20.75
2017-07-04T07:10:06.713Z,20.85
2017-07-04T07:12:36.521Z,20.91
2017-07-04T07:15:06.241Z,20.91
2017-07-04T07:17:35.197Z,21.06
2017-07-04T07:20:04.938Z,21.16
2017-07-04T07:22:34.652Z,21.47
2017-07-04T07:25:04.387Z,21.67
2017-07-04T07:27:34.385Z,21.44
2017-07-04T07:30:04.077Z,21.49
2017-07-04T07:32:33.791Z,21.75
2017-07-04T07:35:04.047Z,21.95
2017-07-04T07:37:33.711Z,21.96
2017-07-04T07:40:03.433Z,22.00
2017-07-04T07:42:33.153Z,22.05
2017-07-04T07:45:02.823Z,22.25
2017-07-04T07:47:32.514Z,22.55
2017-07-04T07:50:02.254Z,22.21
2017-07-04T07:52:31.675Z,21.93
2017-07-04T07:55:01.456Z,22.10
2017-07-04T07:57:31.256Z,22.36
2017-07-04T08:00:00.981Z,22.36
2017-07-04T08:02:30.686Z,22.20
2017-07-04T08:05:00.462Z,22.29
2017-07-04T08:07:30.812Z,22.03
2017-07-04T08:10:00.730Z,21.82
2017-07-04T08:12:30.478Z,21.82
2017-07-04T08:15:00.261Z,22.12
2017-07-04T08:17:30.027Z,22.44
2017-07-04T08:19:59.806Z,22.35
2017-07-04T08:22:30.142Z,22.27
2017-07-04T08:24:59.863Z,22.15
2017-07-04T08:27:29.530Z,22.07
2017-07-04T08:29:59.986Z,21.89
2017-07-04T08:32:29.694Z,22.14
2017-07-04T08:34:59.434Z,22.40
2017-07-04T08:37:29.455Z,22.21
2017-07-04T08:39:59.114Z,22.63
2017-07-04T08:42:29.467Z,23.06
2017-07-04T08:44:59.187Z,23.40
2017-07-04T08:47:28.897Z,23.69
2017-07-04T08:49:58.229Z,23.69
2017-07-04T08:52:27.896Z,23.57
2017-07-04T08:54:58.413Z,23.52
2017-07-04T08:57:27.846Z,23.40
2017-07-04T08:59:57.619Z,23.21
2017-07-04T09:02:27.311Z,22.97
2017-07-04T09:04:56.981Z,22.90
2017-07-04T09:07:26.690Z,22.57
2017-07-04T09:09:56.478Z,22.51
2017-07-04T09:12:26.282Z,22.53
2017-07-04T09:14:56.148Z,22.45
2017-07-04T09:17:25.813Z,22.12
2017-07-04T09:19:55.695Z,22.56
2017-07-04T09:22:25.378Z,22.91
2017-07-04T09:24:55.167Z,23.17
2017-07-04T09:27:25.469Z,23.46
2017-07-04T09:29:55.184Z,23.31
2017-07-04T09:32:24.850Z,23.38
2017-07-04T09:34:54.541Z,23.51
2017-07-04T09:37:24.314Z,23.21
2017-07-04T09:39:53.962Z,23.24
2017-07-04T09:42:24.442Z,22.93
2017-07-04T09:44:54.109Z,22.87
2017-07-04T09:47:23.845Z,22.86
2017-07-04T09:49:54.486Z,22.71
2017-07-04T09:52:24.206Z,23.00
2017-07-04T09:54:53.966Z,22.80
2017-07-04T09:57:23.374Z,22.63
2017-07-04T09:59:53.735Z,22.59
2017-07-04T10:02:23.474Z,22.79
2017-07-04T10:04:53.198Z,23.05
2017-07-04T10:07:22.922Z,23.39
2017-07-04T10:09:52.575Z,23.49
2017-07-04T10:12:22.298Z,23.79
2017-07-04T10:14:51.991Z,23.95
2017-07-04T10:17:22.250Z,23.85
2017-07-04T10:19:51.937Z,24.11
2017-07-04T10:22:21.589Z,24.28
2017-07-04T10:24:51.329Z,24.48
2017-07-04T10:27:21.610Z,24.47
2017-07-04T10:29:51.265Z,24.55
2017-07-04T10:32:21.000Z,24.49
2017-07-04T10:34:50.671Z,24.65
2017-07-04T10:37:20.378Z,24.67
2017-07-04T10:39:50.727Z,24.63
2017-07-04T10:42:20.438Z,24.64
2017-07-04T10:44:50.151Z,24.38
2017-07-04T10:47:19.948Z,24.05
2017-07-04T10:49:49.492Z,23.80
2017-07-04T10:52:19.183Z,23.61
2017-07-04T10:54:49.386Z,23.16
2017-07-04T10:57:19.075Z,22.67
2017-07-04T10:59:48.744Z,22.60
2017-07-04T11:02:18.397Z,23.01
2017-07-04T11:04:48.190Z,23.15
2017-07-04T11:07:25.497Z,23.56
2017-07-04T11:09:59.111Z,23.45
2017-07-04T11:12:28.839Z,23.28
2017-07-04T11:14:58.771Z,23.70
2017-07-04T11:17:28.461Z,23.87
2017-07-04T11:19:59.087Z,23.96
2017-07-04T11:22:28.815Z,24.37
2017-07-04T11:24:58.191Z,24.63
2017-07-04T11:27:28.681Z,24.71
2017-07-04T11:29:58.498Z,24.29
2017-07-04T11:32:28.350Z,24.01
2017-07-04T11:34:58.674Z,23.63
2017-07-04T11:37:28.487Z,23.61
2017-07-04T11:39:57.907Z,23.91
2017-07-04T11:42:28.176Z,24.07
2017-07-04T11:44:57.909Z,24.39
2017-07-04T11:47:27.599Z,24.15
2017-07-04T11:49:58.095Z,24.29
2017-07-04T11:52:27.755Z,24.62
2017-07-04T11:54:57.507Z,24.74
2017-07-04T11:57:27.194Z,24.96
2017-07-04T11:59:56.985Z,24.97
2017-07-04T12:02:26.775Z,24.96
2017-07-04T12:04:56.497Z,24.83
2017-07-04T12:07:26.787Z,24.57
2017-07-04T12:10:04.353Z,24.17
2017-07-04T12:12:34.056Z,24.60
2017-07-04T12:15:04.305Z,24.66
2017-07-04T12:17:34.041Z,24.30
2017-07-04T12:20:03.721Z,24.50
2017-07-04T12:22:33.580Z,24.34
2017-07-04T12:25:03.894Z,24.49
2017-07-04T12:27:33.696Z,24.38
2017-07-04T12:30:03.515Z,24.47
2017-07-04T12:32:33.293Z,24.71
2017-07-04T12:35:03.583Z,24.94
2017-07-04T12:37:32.660Z,24.97
2017-07-04T12:40:02.352Z,24.85
2017-07-04T12:42:32.094Z,24.71
2017-07-04T12:45:01.786Z,24.74
2017-07-04T12:47:31.507Z,24.76
2017-07-04T12:50:01.254Z,24.82
2017-07-04T12:52:31.750Z,24.76
2017-07-04T12:55:01.486Z,24.37
2017-07-04T12:57:31.170Z,24.62
2017-07-04T13:00:00.838Z,24.74
2017-07-04T13:02:30.548Z,24.51
2017-07-04T13:05:00.201Z,24.64
2017-07-04T13:07:30.610Z,24.47
2017-07-04T13:10:00.318Z,24.04
2017-07-04T13:12:29.977Z,24.19
2017-07-04T13:14:59.701Z,23.82
2017-07-04T13:17:29.502Z,23.83
2017-07-04T13:19:59.268Z,23.87
2017-07-04T13:22:29.597Z,23.81
2017-07-04T13:24:59.294Z,23.71
2017-07-04T13:27:29.073Z,23.57
2017-07-04T13:29:58.867Z,23.85
2017-07-04T13:32:28.601Z,23.72
2017-07-04T13:34:58.266Z,23.93
2017-07-04T13:37:28.026Z,24.05
2017-07-04T13:39:57.720Z,23.87
2017-07-04T13:42:27.427Z,24.20
2017-07-04T13:44:57.296Z,24.12
2017-07-04T13:47:27.609Z,24.29
2017-07-04T13:49:57.300Z,24.24
2017-07-04T13:52:27.603Z,23.92
2017-07-04T13:54:58.070Z,23.62
2017-07-04T13:57:27.794Z,23.59
2017-07-04T13:59:57.490Z,23.70
2017-07-04T14:02:27.179Z,23.56
2017-07-04T14:04:56.957Z,23.81
2017-07-04T14:07:26.751Z,24.02
2017-07-04T14:09:57.114Z,24.16
2017-07-04T14:12:26.471Z,24.33
2017-07-04T14:14:56.535Z,24.40
2017-07-04T14:17:26.223Z,24.26
2017-07-04T14:19:56.013Z,24.22
2017-07-04T14:22:25.743Z,24.32
2017-07-04T14:24:55.556Z,24.35
2017-07-04T14:27:25.400Z,24.46
2017-07-04T14:29:55.173Z,24.41
2017-07-04T14:32:24.880Z,24.28
2017-07-04T14:34:54.666Z,24.13
2017-07-04T14:37:24.393Z,24.02
2017-07-04T14:39:54.920Z,23.91
2017-07-04T14:42:24.687Z,23.96
2017-07-04T14:44:54.386Z,23.98
2017-07-04T14:47:24.143Z,24.10
2017-07-04T14:49:54.444Z,24.28
2017-07-04T14:52:24.102Z,24.24
2017-07-04T14:54:54.017Z,23.86
2017-07-04T14:57:23.733Z,23.93
2017-07-04T14:59:54.139Z,23.86
2017-07-04T15:02:23.891Z,23.91
2017-07-04T15:04:53.547Z,23.96
2017-07-04T15:07:23.254Z,23.85
2017-07-04T15:09:52.948Z,23.79
2017-07-04T15:12:22.333Z,23.86
2017-07-04T15:14:52.758Z,23.55
2017-07-04T15:17:22.546Z,23.29
2017-07-04T15:19:51.919Z,23.11
2017-07-04T15:22:21.566Z,23.14
2017-07-04T15:24:51.354Z,23.33
2017-07-04T15:27:21.032Z,23.54
2017-07-04T15:29:50.394Z,23.63
2017-07-04T15:32:20.137Z,23.58
2017-07-04T15:34:49.847Z,23.30
2017-07-04T15:37:19.616Z,23.00
2017-07-04T15:39:49.373Z,22.98
2017-07-04T15:42:19.199Z,22.86
2017-07-04T15:44:49.445Z,22.77
2017-07-04T15:47:19.184Z,22.96
2017-07-04T15:49:48.863Z,22.98
2017-07-04T15:52:18.585Z,23.06
2017-07-04T15:54:48.324Z,23.06
2017-07-04T15:57:18.006Z,23.15
2017-07-04T15:59:47.720Z,23.22
2017-07-04T16:02:17.423Z,23.34
2017-07-04T16:04:47.136Z,23.10
2017-07-04T16:07:16.892Z,23.23
2017-07-04T16:09:46.583Z,23.13
2017-07-04T16:12:16.302Z,23.04
2017-07-04T16:14:46.010Z,23.05
2017-07-04T16:17:15.679Z,23.02
2017-07-04T16:19:45.460Z,23.06
2017-07-04T16:22:15.130Z,22.93
2017-07-04T16:24:44.987Z,22.95
2017-07-04T16:27:14.635Z,23.01
2017-07-04T16:29:44.919Z,22.93
2017-07-04T16:32:15.283Z,22.76
2017-07-04T16:34:45.023Z,22.89
2017-07-04T16:37:14.764Z,22.91
2017-07-04T16:39:44.618Z,22.89
2017-07-04T16:42:15.759Z,22.98
2017-07-04T16:44:45.413Z,23.00
2017-07-04T16:47:15.078Z,22.96
2017-07-04T16:49:44.904Z,22.80
2017-07-04T16:52:22.232Z,22.86
2017-07-04T16:55:01.780Z,22.71
2017-07-04T16:57:40.346Z,22.68
2017-07-04T17:00:23.168Z,22.72
2017-07-04T17:02:57.336Z,22.59
2017-07-04T17:05:26.306Z,22.62
2017-07-04T17:07:54.619Z,22.63
2017-07-04T17:10:24.353Z,22.60
2017-07-04T17:12:53.828Z,22.57
2017-07-04T17:15:23.548Z,22.60
2017-07-04T17:17:53.270Z,22.54
2017-07-04T17:20:25.292Z,22.50
2017-07-04T17:23:02.821Z,22.35
2017-07-04T17:25:40.948Z,22.37
2017-07-04T17:28:12.636Z,22.34
2017-07-04T17:30:42.407Z,22.26
2017-07-04T17:33:12.681Z,22.15
2017-07-04T17:35:43.135Z,22.09
2017-07-04T17:38:12.864Z,22.17
2017-07-04T17:40:42.606Z,22.22
2017-07-04T17:43:15.345Z,22.30
2017-07-04T17:45:45.285Z,22.24
2017-07-04T17:48:15.014Z,22.22
2017-07-04T17:50:44.830Z,22.14
2017-07-04T17:53:15.252Z,22.09
2017-07-04T17:55:45.780Z,22.00
2017-07-04T17:58:16.515Z,22.02
2017-07-04T18:00:47.287Z,22.05
2017-07-04T18:03:18.606Z,22.04
2017-07-04T18:05:56.466Z,21.98
2017-07-04T18:08:27.240Z,21.99
2017-07-04T18:10:57.034Z,22.09
2017-07-04T18:13:26.727Z,21.94
2017-07-04T18:15:56.493Z,21.89
2017-07-04T18:18:26.378Z,21.78
2017-07-04T18:20:56.886Z,21.72
2017-07-04T18:23:26.543Z,21.77
2017-07-04T18:25:56.472Z,21.78
2017-07-04T18:28:26.195Z,21.77
2017-07-04T18:30:55.983Z,21.73
2017-07-04T18:33:25.846Z,21.63
2017-07-04T18:35:55.598Z,21.53
2017-07-04T18:38:24.951Z,21.46
2017-07-04T18:40:54.657Z,21.40
2017-07-04T18:43:24.562Z,21.59
2017-07-04T18:45:57.665Z,21.50
2017-07-04T18:48:28.398Z,21.36
2017-07-04T18:50:58.106Z,21.24
2017-07-04T18:53:28.540Z,21.23
2017-07-04T18:56:06.740Z,21.16
2017-07-04T18:58:48.435Z,21.25
2017-07-04T19:01:29.300Z,21.10
2017-07-04T19:04:12.238Z,21.11
2017-07-04T19:06:53.776Z,20.96
2017-07-04T19:09:34.792Z,20.92
2017-07-04T19:12:14.863Z,20.82
2017-07-04T19:14:54.426Z,20.91
2017-07-04T19:17:33.589Z,20.84
2017-07-04T19:20:15.059Z,20.83
2017-07-04T19:22:56.359Z,20.84
2017-07-04T19:25:39.077Z,20.84
2017-07-04T19:28:21.468Z,20.56
2017-07-04T19:31:01.670Z,20.63
2017-07-04T19:33:41.896Z,20.47
2017-07-04T19:36:22.590Z,20.43
2017-07-04T19:39:05.900Z,20.37
2017-07-04T19:41:46.719Z,20.30
2017-07-04T19:44:28.488Z,20.12
2017-07-04T19:47:06.722Z,20.14
2017-07-04T19:49:44.458Z,20.04
2017-07-04T19:52:24.863Z,20.05
2017-07-04T19:55:06.447Z,19.98
2017-07-04T19:57:46.234Z,19.82
2017-07-04T20:00:28.148Z,19.82
2017-07-04T20:03:07.500Z,19.79
2017-07-04T20:05:47.909Z,19.64
2017-07-04T20:08:29.580Z,19.55
2017-07-04T20:11:11.354Z,19.52
2017-07-04T20:13:44.763Z,19.52
2017-07-04T20:16:17.971Z,19.43
2017-07-04T20:18:48.446Z,19.35
2017-07-04T20:21:19.538Z,19.26
2017-07-04T20:23:51.899Z,19.30
2017-07-04T20:26:22.654Z,19.24
2017-07-04T20:28:55.924Z,19.21
2017-07-04T20:31:31.151Z,19.17
2017-07-04T20:34:04.534Z,19.00
2017-07-04T20:36:34.058Z,18.89
2017-07-04T20:39:03.421Z,18.79
2017-07-04T20:41:33.087Z,18.71
2017-07-04T20:44:02.783Z,18.58
2017-07-04T20:46:32.459Z,18.42
2017-07-04T20:49:02.157Z,18.25
2017-07-04T20:51:31.933Z,18.20
2017-07-04T20:54:01.686Z,18.07
2017-07-04T20:56:31.813Z,18.04
2017-07-04T20:59:01.482Z,17.99
2017-07-04T21:01:31.243Z,17.96
2017-07-04T21:04:00.913Z,17.87
2017-07-04T21:06:30.587Z,17.95
2017-07-04T21:09:00.270Z,17.88
2017-07-04T21:11:30.762Z,17.92
2017-07-04T21:14:00.462Z,17.71
2017-07-04T21:16:30.120Z,17.70
2017-07-04T21:18:59.887Z,17.61
2017-07-04T21:21:29.667Z,17.66
2017-07-04T21:23:59.331Z,17.63
2017-07-04T21:26:29.091Z,17.63
2017-07-04T21:28:59.430Z,17.56
2017-07-04T21:31:29.180Z,17.50
2017-07-04T21:33:58.942Z,17.41
2017-07-04T21:36:29.267Z,17.37
2017-07-04T21:39:00.875Z,17.39
2017-07-04T21:41:31.146Z,17.38
2017-07-04T21:44:00.810Z,17.35
2017-07-04T21:46:30.518Z,17.28
2017-07-04T21:49:00.306Z,17.24
2017-07-04T21:51:29.995Z,17.27
2017-07-04T21:54:00.240Z,17.17
2017-07-04T21:56:30.724Z,17.09
2017-07-04T21:59:00.475Z,16.97
2017-07-04T22:01:30.911Z,16.96
2017-07-04T22:04:00.665Z,16.89
2017-07-04T22:06:30.370Z,16.89
2017-07-04T22:09:00.702Z,16.91
2017-07-04T22:11:30.415Z,16.80
2017-07-04T22:14:00.187Z,16.68
2017-07-04T22:16:29.824Z,16.76
2017-07-04T22:18:59.604Z,16.82
2017-07-04T22:21:29.598Z,16.83
2017-07-04T22:26:27.762Z,16.64
2017-07-04T22:28:57.505Z,16.60
2017-07-04T22:31:27.257Z,16.50
2017-07-04T22:33:57.731Z,16.58
2017-07-04T22:36:27.496Z,16.53
2017-07-04T22:38:57.248Z,16.66
2017-07-04T22:41:26.639Z,16.73
2017-07-04T22:43:57.133Z,16.74
2017-07-04T22:46:26.855Z,16.68
2017-07-04T22:48:56.662Z,16.67
2017-07-04T22:51:26.344Z,16.65
2017-07-04T22:53:56.702Z,16.65
2017-07-04T22:56:26.410Z,16.65
2017-07-04T22:58:56.059Z,16.72
2017-07-04T23:01:25.793Z,16.72
2017-07-04T23:03:56.087Z,16.72
2017-07-04T23:06:25.879Z,16.73
2017-07-04T23:08:55.536Z,16.82
2017-07-04T23:11:26.778Z,16.84
2017-07-04T23:13:56.443Z,16.85
2017-07-04T23:16:26.101Z,16.92
2017-07-04T23:18:55.879Z,17.06
2017-07-04T23:21:31.277Z,17.13
2017-07-04T23:24:00.992Z,17.14
2017-07-04T23:26:30.737Z,17.06
2017-07-04T23:29:00.394Z,17.01
2017-07-04T23:31:30.477Z,17.00
2017-07-04T23:34:00.165Z,17.02
2017-07-04T23:36:30.819Z,17.06
2017-07-04T23:39:00.483Z,17.05
2017-07-04T23:41:30.162Z,17.03
2017-07-04T23:43:59.900Z,17.06
2017-07-04T23:46:29.587Z,17.07
2017-07-04T23:48:59.309Z,17.16
2017-07-04T23:51:29.164Z,17.12
2017-07-04T23:53:58.977Z,17.19
2017-07-04T23:56:28.667Z,17.29
2017-07-04T23:58:58.336Z,17.33
